sensor_id;sensor_type;location;lat;lon;timestamp;temperature;humidity
15409;DHT22;7803;48.130;13.788;2022-10-16T00:40:07;23.10;99.90
15409;DHT22;7803;48.130;13.788;2022-10-16T00:43:13;23.10;99.90
15409;DHT22;7803;48.130;13.788;2022-10-16T00:46:19;23.10;99.90
15409;DHT22;7803;48.130;13.788;2022-10-16T00:49:21;23.10;99.90
15409;DHT22;7803;48.130;13.788;2022-10-16T00:52:23;23.20;99.90
15409;DHT22;7803;48.130;13.788;2022-10-16T00:55:27;23.20;99.90
15409;DHT22;7803;48.130;13.788;2022-10-16T00:58:31;23.30;99.90
15409;DHT22;7803;48.130;13.788;2022-10-16T01:01:33;23.40;99.90
15409;DHT22;7803;48.130;13.788;2022-10-16T01:04:38;23.60;99.90
15409;DHT22;7803;48.130;13.788;2022-10-16T01:07:47;23.70;99.90
15409;DHT22;7803;48.130;13.788;2022-10-16T01:10:55;23.70;99.90
15409;DHT22;7803;48.130;13.788;2022-10-16T01:14:02;23.70;99.90
15409;DHT22;7803;48.130;13.788;2022-10-16T01:17:11;23.70;99.90
15409;DHT22;7803;48.130;13.788;2022-10-16T01:20:23;23.70;99.90
15409;DHT22;7803;48.130;13.788;2022-10-16T01:23:36;23.60;99.90
15409;DHT22;7803;48.130;13.788;2022-10-16T01:27:13;23.60;99.90
15409;DHT22;7803;48.130;13.788;2022-10-16T01:30:18;23.60;99.90
15409;DHT22;7803;48.130;13.788;2022-10-16T01:33:26;23.50;99.90
15409;DHT22;7803;48.130;13.788;2022-10-16T01:36:35;23.50;99.90
15409;DHT22;7803;48.130;13.788;2022-10-16T01:39:40;23.40;99.90
15409;DHT22;7803;48.130;13.788;2022-10-16T01:42:48;23.40;99.90
15409;DHT22;7803;48.130;13.788;2022-10-16T01:45:53;23.40;99.90
15409;DHT22;7803;48.130;13.788;2022-10-16T01:48:55;23.40;99.90
15409;DHT22;7803;48.130;13.788;2022-10-16T01:52:00;23.40;99.90
15409;DHT22;7803;48.130;13.788;2022-10-16T04:36:48;23.10;99.90
15409;DHT22;7803;48.130;13.788;2022-10-16T04:39:50;23.20;99.90
15409;DHT22;7803;48.130;13.788;2022-10-16T04:42:52;23.10;99.90
15409;DHT22;7803;48.130;13.788;2022-10-16T04:45:54;23.20;99.90
15409;DHT22;7803;48.130;13.788;2022-10-16T04:48:57;23.20;99.90
15409;DHT22;7803;48.130;13.788;2022-10-16T04:52:00;23.20;99.90
15409;DHT22;7803;48.130;13.788;2022-10-16T04:55:03;23.20;99.90
15409;DHT22;7803;48.130;13.788;2022-10-16T04:58:05;23.20;99.90
15409;DHT22;7803;48.130;13.788;2022-10-16T05:01:07;23.20;99.90
15409;DHT22;7803;48.130;13.788;2022-10-16T05:04:09;23.20;99.90
15409;DHT22;7803;48.130;13.788;2022-10-16T05:07:13;23.20;99.90
15409;DHT22;7803;48.130;13.788;2022-10-16T05:10:15;23.20;99.90
15409;DHT22;7803;48.130;13.788;2022-10-16T05:13:17;23.20;99.90
15409;DHT22;7803;48.130;13.788;2022-10-16T05:16:19;23.20;99.90
15409;DHT22;7803;48.130;13.788;2022-10-16T05:19:21;23.20;99.90
15409;DHT22;7803;48.130;13.788;2022-10-16T05:22:24;23.20;99.90
15409;DHT22;7803;48.130;13.788;2022-10-16T05:25:26;23.20;99.90
15409;DHT22;7803;48.130;13.788;2022-10-16T05:28:29;23.20;99.90
15409;DHT22;7803;48.130;13.788;2022-10-16T05:31:31;23.20;99.90
15409;DHT22;7803;48.130;13.788;2022-10-16T05:34:33;23.20;99.90
15409;DHT22;7803;48.130;13.788;2022-10-16T05:37:37;23.20;99.90
15409;DHT22;7803;48.130;13.788;2022-10-16T05:40:39;23.20;99.90
15409;DHT22;7803;48.130;13.788;2022-10-16T05:43:41;23.20;99.90
15409;DHT22;7803;48.130;13.788;2022-10-16T05:46:43;23.20;99.90
15409;DHT22;7803;48.130;13.788;2022-10-16T05:49:45;23.20;99.90
15409;DHT22;7803;48.130;13.788;2022-10-16T05:52:48;23.20;99.90
15409;DHT22;7803;48.130;13.788;2022-10-16T05:55:52;23.20;99.90
15409;DHT22;7803;48.130;13.788;2022-10-16T05:58:54;23.20;99.90
15409;DHT22;7803;48.130;13.788;2022-10-16T06:01:56;23.20;99.90
15409;DHT22;7803;48.130;13.788;2022-10-16T06:04:58;23.20;99.90
15409;DHT22;7803;48.130;13.788;2022-10-16T06:08:02;23.20;99.90
15409;DHT22;7803;48.130;13.788;2022-10-16T06:11:05;23.20;99.90
15409;DHT22;7803;48.130;13.788;2022-10-16T06:14:08;23.20;99.90
15409;DHT22;7803;48.130;13.788;2022-10-16T06:17:10;23.20;99.90
15409;DHT22;7803;48.130;13.788;2022-10-16T06:20:13;23.20;99.90
15409;DHT22;7803;48.130;13.788;2022-10-16T06:23:16;23.20;99.90
15409;DHT22;7803;48.130;13.788;2022-10-16T06:26:19;23.20;99.90
15409;DHT22;7803;48.130;13.788;2022-10-16T06:29:22;23.20;99.90
15409;DHT22;7803;48.130;13.788;2022-10-16T06:32:24;23.20;99.90
15409;DHT22;7803;48.130;13.788;2022-10-16T06:35:26;23.30;99.90
15409;DHT22;7803;48.130;13.788;2022-10-16T06:38:31;23.30;99.90
15409;DHT22;7803;48.130;13.788;2022-10-16T06:41:34;23.20;99.90
15409;DHT22;7803;48.130;13.788;2022-10-16T06:44:36;23.30;99.90
15409;DHT22;7803;48.130;13.788;2022-10-16T06:47:38;23.30;99.90
15409;DHT22;7803;48.130;13.788;2022-10-16T06:50:40;23.30;99.90
15409;DHT22;7803;48.130;13.788;2022-10-16T06:53:45;23.30;99.90
15409;DHT22;7803;48.130;13.788;2022-10-16T06:56:47;23.30;99.90
15409;DHT22;7803;48.130;13.788;2022-10-16T06:59:50;23.30;99.90
15409;DHT22;7803;48.130;13.788;2022-10-16T07:02:52;23.30;99.90
15409;DHT22;7803;48.130;13.788;2022-10-16T07:05:54;23.30;99.90
15409;DHT22;7803;48.130;13.788;2022-10-16T07:08:58;23.30;99.90
15409;DHT22;7803;48.130;13.788;2022-10-16T07:12:00;23.40;99.90
15409;DHT22;7803;48.130;13.788;2022-10-16T07:15:02;23.40;99.90
15409;DHT22;7803;48.130;13.788;2022-10-16T07:18:04;23.40;99.90
15409;DHT22;7803;48.130;13.788;2022-10-16T07:21:07;23.40;99.90
15409;DHT22;7803;48.130;13.788;2022-10-16T07:24:14;23.40;99.90
15409;DHT22;7803;48.130;13.788;2022-10-16T07:27:16;23.40;99.90
15409;DHT22;7803;48.130;13.788;2022-10-16T07:30:18;23.40;99.90
15409;DHT22;7803;48.130;13.788;2022-10-16T07:33:20;23.40;99.90
15409;DHT22;7803;48.130;13.788;2022-10-16T07:36:22;23.50;99.90
15409;DHT22;7803;48.130;13.788;2022-10-16T07:39:25;23.50;99.90
15409;DHT22;7803;48.130;13.788;2022-10-16T07:42:28;23.50;99.90
15409;DHT22;7803;48.130;13.788;2022-10-16T07:45:30;23.50;99.90
15409;DHT22;7803;48.130;13.788;2022-10-16T07:48:33;23.50;99.90
15409;DHT22;7803;48.130;13.788;2022-10-16T07:51:36;23.50;99.90
15409;DHT22;7803;48.130;13.788;2022-10-16T07:54:40;23.50;99.90
15409;DHT22;7803;48.130;13.788;2022-10-16T07:57:42;23.50;99.90
15409;DHT22;7803;48.130;13.788;2022-10-16T08:00:44;23.40;99.90
15409;DHT22;7803;48.130;13.788;2022-10-16T08:03:47;23.50;99.90
15409;DHT22;7803;48.130;13.788;2022-10-16T08:06:50;23.50;99.90
15409;DHT22;7803;48.130;13.788;2022-10-16T08:09:53;23.40;99.90
15409;DHT22;7803;48.130;13.788;2022-10-16T08:12:57;23.50;99.90
15409;DHT22;7803;48.130;13.788;2022-10-16T08:15:59;23.40;99.90
15409;DHT22;7803;48.130;13.788;2022-10-16T08:19:01;23.40;99.90
15409;DHT22;7803;48.130;13.788;2022-10-16T08:22:03;23.40;99.90
15409;DHT22;7803;48.130;13.788;2022-10-16T08:25:07;23.50;99.90
15409;DHT22;7803;48.130;13.788;2022-10-16T08:28:10;23.40;99.90
15409;DHT22;7803;48.130;13.788;2022-10-16T08:31:14;23.50;99.90
15409;DHT22;7803;48.130;13.788;2022-10-16T08:34:16;23.50;99.90
15409;DHT22;7803;48.130;13.788;2022-10-16T08:37:18;23.50;99.90
15409;DHT22;7803;48.130;13.788;2022-10-16T08:40:25;23.50;99.90
15409;DHT22;7803;48.130;13.788;2022-10-16T08:43:43;23.50;99.90
15409;DHT22;7803;48.130;13.788;2022-10-16T08:47:01;23.50;99.90
15409;DHT22;7803;48.130;13.788;2022-10-16T08:50:10;23.50;99.90
15409;DHT22;7803;48.130;13.788;2022-10-16T08:53:16;23.50;99.90
15409;DHT22;7803;48.130;13.788;2022-10-16T08:56:21;23.50;99.90
15409;DHT22;7803;48.130;13.788;2022-10-16T08:59:23;23.60;99.90
15409;DHT22;7803;48.130;13.788;2022-10-16T09:02:30;23.50;99.90
15409;DHT22;7803;48.130;13.788;2022-10-16T09:05:57;23.60;99.90
15409;DHT22;7803;48.130;13.788;2022-10-16T09:09:23;23.60;99.90
15409;DHT22;7803;48.130;13.788;2022-10-16T09:12:38;23.60;99.90
15409;DHT22;7803;48.130;13.788;2022-10-16T09:15:47;23.70;99.90
15409;DHT22;7803;48.130;13.788;2022-10-16T09:18:56;23.80;99.90
15409;DHT22;7803;48.130;13.788;2022-10-16T09:22:02;23.80;99.90
15409;DHT22;7803;48.130;13.788;2022-10-16T09:25:19;23.80;99.90
15409;DHT22;7803;48.130;13.788;2022-10-16T09:28:24;23.90;99.90
15409;DHT22;7803;48.130;13.788;2022-10-16T09:31:26;23.80;99.90
15409;DHT22;7803;48.130;13.788;2022-10-16T09:34:31;23.80;99.90
15409;DHT22;7803;48.130;13.788;2022-10-16T09:37:33;23.70;99.90
15409;DHT22;7803;48.130;13.788;2022-10-16T09:40:37;23.70;99.90
15409;DHT22;7803;48.130;13.788;2022-10-16T09:43:45;23.70;99.90
15409;DHT22;7803;48.130;13.788;2022-10-16T09:46:48;23.70;99.90
15409;DHT22;7803;48.130;13.788;2022-10-16T09:49:51;23.60;99.90
15409;DHT22;7803;48.130;13.788;2022-10-16T09:53:04;23.60;99.90
15409;DHT22;7803;48.130;13.788;2022-10-16T09:56:06;23.60;99.90
15409;DHT22;7803;48.130;13.788;2022-10-16T09:59:13;23.60;99.90
15409;DHT22;7803;48.130;13.788;2022-10-16T10:02:17;23.50;99.90
15409;DHT22;7803;48.130;13.788;2022-10-16T10:05:21;23.50;99.90
15409;DHT22;7803;48.130;13.788;2022-10-16T10:08:24;23.50;99.90
15409;DHT22;7803;48.130;13.788;2022-10-16T10:11:44;23.50;99.90
15409;DHT22;7803;48.130;13.788;2022-10-16T10:14:50;23.40;99.90
15409;DHT22;7803;48.130;13.788;2022-10-16T10:17:54;23.50;99.90
15409;DHT22;7803;48.130;13.788;2022-10-16T10:20:58;23.50;99.90
15409;DHT22;7803;48.130;13.788;2022-10-16T10:24:01;23.50;99.90
15409;DHT22;7803;48.130;13.788;2022-10-16T10:27:10;23.50;99.90
15409;DHT22;7803;48.130;13.788;2022-10-16T10:30:20;23.40;99.90
15409;DHT22;7803;48.130;13.788;2022-10-16T10:33:33;23.40;99.90
15409;DHT22;7803;48.130;13.788;2022-10-16T10:36:38;23.40;99.90
15409;DHT22;7803;48.130;13.788;2022-10-16T10:39:43;23.40;99.90
15409;DHT22;7803;48.130;13.788;2022-10-16T10:42:55;23.30;99.90
15409;DHT22;7803;48.130;13.788;2022-10-16T10:46:04;23.30;99.90
15409;DHT22;7803;48.130;13.788;2022-10-16T10:49:20;23.30;99.90
15409;DHT22;7803;48.130;13.788;2022-10-16T10:52:34;23.30;99.90
15409;DHT22;7803;48.130;13.788;2022-10-16T10:55:42;23.30;99.90
15409;DHT22;7803;48.130;13.788;2022-10-16T10:59:14;23.30;99.90
15409;DHT22;7803;48.130;13.788;2022-10-16T11:02:31;23.30;99.90
15409;DHT22;7803;48.130;13.788;2022-10-16T11:05:44;23.20;99.90
15409;DHT22;7803;48.130;13.788;2022-10-16T11:08:50;23.20;99.90
15409;DHT22;7803;48.130;13.788;2022-10-16T11:11:56;23.20;99.90
15409;DHT22;7803;48.130;13.788;2022-10-16T11:15:03;23.10;99.90
15409;DHT22;7803;48.130;13.788;2022-10-16T11:18:13;23.10;99.90
15409;DHT22;7803;48.130;13.788;2022-10-16T11:21:19;23.10;99.90
15409;DHT22;7803;48.130;13.788;2022-10-16T11:24:27;23.10;99.90
15409;DHT22;7803;48.130;13.788;2022-10-16T11:27:37;23.10;99.90
15409;DHT22;7803;48.130;13.788;2022-10-16T11:30:44;23.00;99.90
15409;DHT22;7803;48.130;13.788;2022-10-16T11:33:53;23.00;99.90
15409;DHT22;7803;48.130;13.788;2022-10-16T11:37:01;23.00;99.90
15409;DHT22;7803;48.130;13.788;2022-10-16T11:40:17;23.00;99.90
15409;DHT22;7803;48.130;13.788;2022-10-16T11:43:25;23.00;99.90
15409;DHT22;7803;48.130;13.788;2022-10-16T11:46:31;23.00;99.90
15409;DHT22;7803;48.130;13.788;2022-10-16T11:49:36;23.00;99.90
15409;DHT22;7803;48.130;13.788;2022-10-16T11:52:43;23.00;99.90
15409;DHT22;7803;48.130;13.788;2022-10-16T11:55:48;23.00;99.90
15409;DHT22;7803;48.130;13.788;2022-10-16T11:58:56;22.90;99.90
15409;DHT22;7803;48.130;13.788;2022-10-16T12:02:11;22.90;99.90
15409;DHT22;7803;48.130;13.788;2022-10-16T12:05:25;22.90;99.90
15409;DHT22;7803;48.130;13.788;2022-10-16T12:08:30;22.80;99.90
15409;DHT22;7803;48.130;13.788;2022-10-16T12:11:37;22.80;99.90
15409;DHT22;7803;48.130;13.788;2022-10-16T12:14:39;22.80;99.90
15409;DHT22;7803;48.130;13.788;2022-10-16T12:17:41;22.80;99.90
15409;DHT22;7803;48.130;13.788;2022-10-16T12:20:54;22.80;99.90
15409;DHT22;7803;48.130;13.788;2022-10-16T12:24:03;22.80;99.90
15409;DHT22;7803;48.130;13.788;2022-10-16T12:27:22;22.80;99.90
15409;DHT22;7803;48.130;13.788;2022-10-16T12:30:26;22.90;99.90
15409;DHT22;7803;48.130;13.788;2022-10-16T12:33:30;22.90;99.90
15409;DHT22;7803;48.130;13.788;2022-10-16T12:36:34;22.90;99.90
15409;DHT22;7803;48.130;13.788;2022-10-16T12:39:37;22.90;99.90
15409;DHT22;7803;48.130;13.788;2022-10-16T12:42:39;22.90;99.90
15409;DHT22;7803;48.130;13.788;2022-10-16T12:45:41;22.90;99.90
15409;DHT22;7803;48.130;13.788;2022-10-16T12:48:44;22.90;99.90
15409;DHT22;7803;48.130;13.788;2022-10-16T12:51:50;22.80;99.90
15409;DHT22;7803;48.130;13.788;2022-10-16T12:54:56;22.90;99.90
15409;DHT22;7803;48.130;13.788;2022-10-16T12:58:12;22.90;99.90
15409;DHT22;7803;48.130;13.788;2022-10-16T13:01:34;22.90;99.90
15409;DHT22;7803;48.130;13.788;2022-10-16T13:04:50;22.90;99.90
15409;DHT22;7803;48.130;13.788;2022-10-16T13:08:09;22.90;99.90
15409;DHT22;7803;48.130;13.788;2022-10-16T13:11:22;22.90;99.90
15409;DHT22;7803;48.130;13.788;2022-10-16T13:14:46;22.90;99.90
15409;DHT22;7803;48.130;13.788;2022-10-16T13:17:57;22.90;99.90
15409;DHT22;7803;48.130;13.788;2022-10-16T13:21:17;22.90;99.90
15409;DHT22;7803;48.130;13.788;2022-10-16T13:24:31;23.00;99.90
15409;DHT22;7803;48.130;13.788;2022-10-16T13:27:43;23.00;99.90
15409;DHT22;7803;48.130;13.788;2022-10-16T13:30:52;22.90;99.90
15409;DHT22;7803;48.130;13.788;2022-10-16T13:33:57;22.90;99.90
15409;DHT22;7803;48.130;13.788;2022-10-16T13:37:00;22.90;99.90
15409;DHT22;7803;48.130;13.788;2022-10-16T13:40:19;22.90;99.90
15409;DHT22;7803;48.130;13.788;2022-10-16T13:43:26;22.90;99.90
15409;DHT22;7803;48.130;13.788;2022-10-16T13:46:29;23.00;99.90
15409;DHT22;7803;48.130;13.788;2022-10-16T13:49:34;23.00;99.90
15409;DHT22;7803;48.130;13.788;2022-10-16T13:52:37;23.00;99.90
15409;DHT22;7803;48.130;13.788;2022-10-16T13:55:40;23.00;99.90
15409;DHT22;7803;48.130;13.788;2022-10-16T13:58:42;23.00;99.90
15409;DHT22;7803;48.130;13.788;2022-10-16T14:01:45;23.00;99.90
15409;DHT22;7803;48.130;13.788;2022-10-16T14:04:47;23.10;99.90
15409;DHT22;7803;48.130;13.788;2022-10-16T14:07:52;23.10;99.90
15409;DHT22;7803;48.130;13.788;2022-10-16T14:10:57;23.10;99.90
15409;DHT22;7803;48.130;13.788;2022-10-16T14:14:00;23.10;99.90
15409;DHT22;7803;48.130;13.788;2022-10-16T14:17:03;23.10;99.90
15409;DHT22;7803;48.130;13.788;2022-10-16T14:20:11;23.10;99.90
15409;DHT22;7803;48.130;13.788;2022-10-16T14:23:21;23.10;99.90
15409;DHT22;7803;48.130;13.788;2022-10-16T14:26:27;23.10;99.90
15409;DHT22;7803;48.130;13.788;2022-10-16T14:29:30;23.10;99.90
15409;DHT22;7803;48.130;13.788;2022-10-16T14:32:32;23.10;99.90
15409;DHT22;7803;48.130;13.788;2022-10-16T14:35:36;23.10;99.90
15409;DHT22;7803;48.130;13.788;2022-10-16T14:38:40;23.10;99.90
15409;DHT22;7803;48.130;13.788;2022-10-16T14:41:46;23.10;99.90
15409;DHT22;7803;48.130;13.788;2022-10-16T14:44:48;23.00;99.90
15409;DHT22;7803;48.130;13.788;2022-10-16T14:47:55;23.10;99.90
15409;DHT22;7803;48.130;13.788;2022-10-16T14:50:57;23.10;99.90
15409;DHT22;7803;48.130;13.788;2022-10-16T14:53:59;23.10;99.90
15409;DHT22;7803;48.130;13.788;2022-10-16T14:57:04;23.10;99.90
15409;DHT22;7803;48.130;13.788;2022-10-16T15:00:13;23.10;99.90
15409;DHT22;7803;48.130;13.788;2022-10-16T15:03:16;23.10;99.90
15409;DHT22;7803;48.130;13.788;2022-10-16T15:06:18;23.10;99.90
15409;DHT22;7803;48.130;13.788;2022-10-16T15:09:20;23.10;99.90
15409;DHT22;7803;48.130;13.788;2022-10-16T15:12:24;23.10;99.90
15409;DHT22;7803;48.130;13.788;2022-10-16T15:15:35;23.20;99.90
15409;DHT22;7803;48.130;13.788;2022-10-16T15:18:38;23.20;99.90
15409;DHT22;7803;48.130;13.788;2022-10-16T15:21:40;23.20;99.90
15409;DHT22;7803;48.130;13.788;2022-10-16T15:24:43;23.20;99.90
15409;DHT22;7803;48.130;13.788;2022-10-16T15:27:46;23.20;99.90
15409;DHT22;7803;48.130;13.788;2022-10-16T15:30:50;23.10;99.90
15409;DHT22;7803;48.130;13.788;2022-10-16T15:33:53;23.20;99.90
15409;DHT22;7803;48.130;13.788;2022-10-16T15:37:02;23.20;99.90
15409;DHT22;7803;48.130;13.788;2022-10-16T15:40:05;23.10;99.90
15409;DHT22;7803;48.130;13.788;2022-10-16T15:43:09;23.20;99.90
15409;DHT22;7803;48.130;13.788;2022-10-16T15:46:12;23.20;99.90
15409;DHT22;7803;48.130;13.788;2022-10-16T15:49:15;23.20;99.90
15409;DHT22;7803;48.130;13.788;2022-10-16T15:52:17;23.20;99.90
15409;DHT22;7803;48.130;13.788;2022-10-16T15:55:19;23.10;99.90
15409;DHT22;7803;48.130;13.788;2022-10-16T15:58:22;23.10;99.90
15409;DHT22;7803;48.130;13.788;2022-10-16T16:01:25;23.10;99.90
15409;DHT22;7803;48.130;13.788;2022-10-16T16:04:29;23.10;99.90
15409;DHT22;7803;48.130;13.788;2022-10-16T16:07:32;23.10;99.90
15409;DHT22;7803;48.130;13.788;2022-10-16T16:10:35;23.10;99.90
15409;DHT22;7803;48.130;13.788;2022-10-16T16:13:39;23.10;99.90
15409;DHT22;7803;48.130;13.788;2022-10-16T16:16:41;23.20;99.90
15409;DHT22;7803;48.130;13.788;2022-10-16T16:19:45;23.10;99.90
15409;DHT22;7803;48.130;13.788;2022-10-16T16:22:47;23.10;99.90
15409;DHT22;7803;48.130;13.788;2022-10-16T16:26:03;23.10;99.90
15409;DHT22;7803;48.130;13.788;2022-10-16T16:29:08;23.20;99.90
15409;DHT22;7803;48.130;13.788;2022-10-16T16:32:11;23.20;99.90
15409;DHT22;7803;48.130;13.788;2022-10-16T16:35:13;23.10;99.90
15409;DHT22;7803;48.130;13.788;2022-10-16T16:38:16;23.10;99.90
15409;DHT22;7803;48.130;13.788;2022-10-16T16:41:19;23.10;99.90
15409;DHT22;7803;48.130;13.788;2022-10-16T16:44:23;23.10;99.90
15409;DHT22;7803;48.130;13.788;2022-10-16T16:47:25;23.10;99.90
15409;DHT22;7803;48.130;13.788;2022-10-16T16:50:27;23.10;99.90
15409;DHT22;7803;48.130;13.788;2022-10-16T16:53:29;23.10;99.90
15409;DHT22;7803;48.130;13.788;2022-10-16T16:56:32;23.10;99.90
15409;DHT22;7803;48.130;13.788;2022-10-16T16:59:38;23.10;99.90
15409;DHT22;7803;48.130;13.788;2022-10-16T17:02:40;23.10;99.90
15409;DHT22;7803;48.130;13.788;2022-10-16T17:05:54;23.10;99.90
15409;DHT22;7803;48.130;13.788;2022-10-16T17:09:05;23.10;99.90
15409;DHT22;7803;48.130;13.788;2022-10-16T17:12:08;23.10;99.90
15409;DHT22;7803;48.130;13.788;2022-10-16T17:15:12;23.10;99.90
15409;DHT22;7803;48.130;13.788;2022-10-16T17:18:15;23.10;99.90
15409;DHT22;7803;48.130;13.788;2022-10-16T17:21:21;23.20;99.90
15409;DHT22;7803;48.130;13.788;2022-10-16T17:24:26;23.10;99.90
15409;DHT22;7803;48.130;13.788;2022-10-16T17:27:29;23.20;99.90
15409;DHT22;7803;48.130;13.788;2022-10-16T17:30:33;23.20;99.90
15409;DHT22;7803;48.130;13.788;2022-10-16T17:33:37;23.10;99.90
15409;DHT22;7803;48.130;13.788;2022-10-16T17:36:40;23.20;99.90
15409;DHT22;7803;48.130;13.788;2022-10-16T17:39:49;23.10;99.90
15409;DHT22;7803;48.130;13.788;2022-10-16T17:42:55;23.10;99.90
15409;DHT22;7803;48.130;13.788;2022-10-16T17:46:01;23.20;99.90
15409;DHT22;7803;48.130;13.788;2022-10-16T17:49:05;23.20;99.90
15409;DHT22;7803;48.130;13.788;2022-10-16T17:52:08;23.10;99.90
15409;DHT22;7803;48.130;13.788;2022-10-16T17:55:11;23.10;99.90
15409;DHT22;7803;48.130;13.788;2022-10-16T17:58:15;23.10;99.90
15409;DHT22;7803;48.130;13.788;2022-10-16T18:01:22;23.10;99.90
15409;DHT22;7803;48.130;13.788;2022-10-16T18:04:25;23.20;99.90
15409;DHT22;7803;48.130;13.788;2022-10-16T18:07:28;23.10;99.90
15409;DHT22;7803;48.130;13.788;2022-10-16T18:10:31;23.10;99.90
15409;DHT22;7803;48.130;13.788;2022-10-16T18:13:34;23.20;99.90
15409;DHT22;7803;48.130;13.788;2022-10-16T18:16:39;23.20;99.90
15409;DHT22;7803;48.130;13.788;2022-10-16T18:19:43;23.20;99.90
15409;DHT22;7803;48.130;13.788;2022-10-16T18:22:46;23.20;99.90
15409;DHT22;7803;48.130;13.788;2022-10-16T18:25:49;23.20;99.90
15409;DHT22;7803;48.130;13.788;2022-10-16T18:28:53;23.20;99.90
15409;DHT22;7803;48.130;13.788;2022-10-16T18:31:58;23.20;99.90
15409;DHT22;7803;48.130;13.788;2022-10-16T18:35:02;23.20;99.90
15409;DHT22;7803;48.130;13.788;2022-10-16T18:38:06;23.20;99.90
15409;DHT22;7803;48.130;13.788;2022-10-16T18:41:09;23.20;99.90
15409;DHT22;7803;48.130;13.788;2022-10-16T18:44:12;23.30;99.90
15409;DHT22;7803;48.130;13.788;2022-10-16T18:47:17;23.30;99.90
15409;DHT22;7803;48.130;13.788;2022-10-16T18:50:21;23.30;99.90
15409;DHT22;7803;48.130;13.788;2022-10-16T18:53:24;23.30;99.90
15409;DHT22;7803;48.130;13.788;2022-10-16T18:56:29;23.30;99.90
15409;DHT22;7803;48.130;13.788;2022-10-16T18:59:32;23.30;99.90
15409;DHT22;7803;48.130;13.788;2022-10-16T19:02:41;23.30;99.90
15409;DHT22;7803;48.130;13.788;2022-10-16T19:05:44;23.30;99.90
15409;DHT22;7803;48.130;13.788;2022-10-16T19:08:48;23.30;99.90
15409;DHT22;7803;48.130;13.788;2022-10-16T19:11:51;23.30;99.90
15409;DHT22;7803;48.130;13.788;2022-10-16T19:14:54;23.30;99.90
15409;DHT22;7803;48.130;13.788;2022-10-16T19:17:59;23.30;99.90
15409;DHT22;7803;48.130;13.788;2022-10-16T19:21:03;23.30;99.90
15409;DHT22;7803;48.130;13.788;2022-10-16T19:24:10;23.30;99.90
15409;DHT22;7803;48.130;13.788;2022-10-16T19:27:13;23.30;99.90
15409;DHT22;7803;48.130;13.788;2022-10-16T19:30:16;23.40;99.90
15409;DHT22;7803;48.130;13.788;2022-10-16T19:33:20;23.40;99.90
15409;DHT22;7803;48.130;13.788;2022-10-16T19:36:25;23.30;99.90
15409;DHT22;7803;48.130;13.788;2022-10-16T19:39:28;23.40;99.90
15409;DHT22;7803;48.130;13.788;2022-10-16T19:42:31;23.40;99.90
15409;DHT22;7803;48.130;13.788;2022-10-16T19:45:33;23.40;99.90
15409;DHT22;7803;48.130;13.788;2022-10-16T19:48:38;23.40;99.90
15409;DHT22;7803;48.130;13.788;2022-10-16T19:51:41;23.40;99.90
15409;DHT22;7803;48.130;13.788;2022-10-16T19:54:43;23.40;99.90
15409;DHT22;7803;48.130;13.788;2022-10-16T19:57:45;23.40;99.90
15409;DHT22;7803;48.130;13.788;2022-10-16T20:00:47;23.40;99.90
15409;DHT22;7803;48.130;13.788;2022-10-16T20:03:51;23.40;99.90
15409;DHT22;7803;48.130;13.788;2022-10-16T20:06:53;23.40;99.90
15409;DHT22;7803;48.130;13.788;2022-10-16T20:09:55;23.40;99.90
15409;DHT22;7803;48.130;13.788;2022-10-16T20:12:57;23.40;99.90
15409;DHT22;7803;48.130;13.788;2022-10-16T20:16:01;23.40;99.90
15409;DHT22;7803;48.130;13.788;2022-10-16T20:19:05;23.40;99.90
15409;DHT22;7803;48.130;13.788;2022-10-16T20:22:07;23.40;99.90
15409;DHT22;7803;48.130;13.788;2022-10-16T20:25:10;23.40;99.90
15409;DHT22;7803;48.130;13.788;2022-10-16T20:28:13;23.40;99.90
15409;DHT22;7803;48.130;13.788;2022-10-16T20:31:18;23.40;99.90
15409;DHT22;7803;48.130;13.788;2022-10-16T20:34:23;23.40;99.90
15409;DHT22;7803;48.130;13.788;2022-10-16T20:37:25;23.40;99.90
15409;DHT22;7803;48.130;13.788;2022-10-16T20:40:27;23.40;99.90
15409;DHT22;7803;48.130;13.788;2022-10-16T20:43:29;23.40;99.90
15409;DHT22;7803;48.130;13.788;2022-10-16T20:46:32;23.40;99.90
15409;DHT22;7803;48.130;13.788;2022-10-16T20:49:36;23.40;99.90
15409;DHT22;7803;48.130;13.788;2022-10-16T20:52:38;23.40;99.90
15409;DHT22;7803;48.130;13.788;2022-10-16T20:55:40;23.40;99.90
15409;DHT22;7803;48.130;13.788;2022-10-16T20:58:42;23.40;99.90
15409;DHT22;7803;48.130;13.788;2022-10-16T21:01:44;23.40;99.90
15409;DHT22;7803;48.130;13.788;2022-10-16T21:04:48;23.40;99.90
15409;DHT22;7803;48.130;13.788;2022-10-16T21:07:50;23.40;99.90
15409;DHT22;7803;48.130;13.788;2022-10-16T21:10:52;23.30;99.90
15409;DHT22;7803;48.130;13.788;2022-10-16T21:13:55;23.30;99.90
15409;DHT22;7803;48.130;13.788;2022-10-16T21:16:57;23.30;99.90
15409;DHT22;7803;48.130;13.788;2022-10-16T21:20:02;23.30;99.90
15409;DHT22;7803;48.130;13.788;2022-10-16T21:23:05;23.30;99.90
15409;DHT22;7803;48.130;13.788;2022-10-16T21:26:07;23.40;99.90
15409;DHT22;7803;48.130;13.788;2022-10-16T21:29:09;23.30;99.90
15409;DHT22;7803;48.130;13.788;2022-10-16T21:32:11;23.30;99.90
15409;DHT22;7803;48.130;13.788;2022-10-16T21:35:15;23.30;99.90
15409;DHT22;7803;48.130;13.788;2022-10-16T21:38:17;23.30;99.90
15409;DHT22;7803;48.130;13.788;2022-10-16T21:41:21;23.30;99.90
15409;DHT22;7803;48.130;13.788;2022-10-16T21:44:24;23.30;99.90
15409;DHT22;7803;48.130;13.788;2022-10-16T21:47:26;23.30;99.90
15409;DHT22;7803;48.130;13.788;2022-10-16T21:50:29;23.30;99.90
15409;DHT22;7803;48.130;13.788;2022-10-16T21:53:31;23.30;99.90
15409;DHT22;7803;48.130;13.788;2022-10-16T21:56:33;23.30;99.90
15409;DHT22;7803;48.130;13.788;2022-10-16T21:59:35;23.30;99.90
15409;DHT22;7803;48.130;13.788;2022-10-16T22:02:37;23.30;99.90
15409;DHT22;7803;48.130;13.788;2022-10-16T22:05:41;23.30;99.90
15409;DHT22;7803;48.130;13.788;2022-10-16T22:08:45;23.30;99.90
15409;DHT22;7803;48.130;13.788;2022-10-16T22:11:47;23.30;99.90
15409;DHT22;7803;48.130;13.788;2022-10-16T22:14:50;23.30;99.90
15409;DHT22;7803;48.130;13.788;2022-10-16T22:17:52;23.30;99.90
15409;DHT22;7803;48.130;13.788;2022-10-16T22:20:56;23.30;99.90
15409;DHT22;7803;48.130;13.788;2022-10-16T22:23:58;23.20;99.90
15409;DHT22;7803;48.130;13.788;2022-10-16T22:27:00;23.30;99.90
15409;DHT22;7803;48.130;13.788;2022-10-16T22:30:03;23.20;99.90
15409;DHT22;7803;48.130;13.788;2022-10-16T22:33:05;23.20;99.90
15409;DHT22;7803;48.130;13.788;2022-10-16T22:36:11;23.20;99.90
15409;DHT22;7803;48.130;13.788;2022-10-16T22:39:13;23.20;99.90
15409;DHT22;7803;48.130;13.788;2022-10-16T22:42:15;23.20;99.90
15409;DHT22;7803;48.130;13.788;2022-10-16T22:45:17;23.30;99.90
15409;DHT22;7803;48.130;13.788;2022-10-16T22:48:19;23.20;99.90